Relevés horaires Grono (Suisse)


Relevés horaires à Grono - Mercredi 12 Sept. 2018
Heure UTC1 Température [°C] Vent [km/h] Hum. [%] Pres.4 [hPa] Visi. [Km] Nébu. [octa] Préc.5 [mm] Cond.
2m. Res. Ros. Dir.2 Vit. Moy. Raf.3
23:00 18.9 18.9 17.8 N 3.7 -- -- 93 1018.9 -- -- -- --
22:00 19.6 19.6 18.5 N 5.6 -- -- 93 1019.5 -- -- -- --
21:00 19.1 19.1 18.1 NNO 3.7 -- 9.3 94 1019.7(0.4/3h) -- -- -- --
20:00 20.1 20.1 18.5 N 1.9 -- -- 91 1019.6 -- -- -- --
19:00 21.0 21.0 18.9 NNO 3.7 -- -- 88 1019.5 -- -- -- --
18:00 22.5 22.5 19.1 N 3.7 -- 37.0 81 1018.8(-0.2/3h) -- -- 0/12h
--
17:00 25.8 25.8 18.1 SSE 7.4 -- -- 63 1018.4 -- -- -- --
16:00 27.6 27.6 18.0 S 11.1 -- -- 56 1018 -- -- -- --
15:00 28.2 28.2 18.1 S 9.3 -- 37.0 54 1018.3(-2.4/3h) -- -- -- --
14:00 28.4 28.4 17.7 S 14.8 -- -- 52 1019.1 -- -- -- --
13:00 28.1 28.1 17.6 SSE 11.1 -- -- 53 1019.8 -- -- -- --
12:00 27.4 27.4 17.4 S 9.3 -- 16.7 54 1020.9(-2.4/3h) -- -- 0/6h
--
11:00 25.8 25.8 16.6 SSO 9.3 -- -- 57 1021.8 -- -- -- --
10:00 24.3 24.3 16.6 S 3.7 -- -- 62 1022.6 -- -- -- --
09:00 21.2 21.2 16.1 NE 5.6 -- 14.8 73 1024.2(-0.6/3h) -- -- -- --
08:00 16.9 16.9 15.7 N 9.3 -- -- 93 1025.3 -- -- -- --
07:00 16.0 16.0 15.1 NNO 0.0 -- -- 94 1025.5 -- -- -- --
06:00 15.5 15.5 14.7 N 3.7 -- 13.0 95 1025.6(-0.1/3h) -- -- 0/12h
0/24h
--
05:00 15.1 15.1 14.6 N 7.4 -- -- 97 1025.8 -- -- -- --
04:00 15.2 15.2 14.6 NNO 3.7 -- -- 96 1025.6 -- -- -- --
03:00 15.6 15.6 15.2 N 7.4 -- 13.0 97 1025.7(-0.5/3h) -- -- -- --
02:00 15.2 15.2 14.6 N 0.0 -- -- 96 1025.8 -- -- -- --
01:00 16.2 16.2 15.3 N 5.6 -- -- 94 1025.6 -- -- -- --
00:00 16.8 16.8 15.6 N 5.6 -- 13.0 93 1026.1(0.6/3h) -- -- 0/6h
--

1 Coordinated Universal Time. Actuellement il est 20:00 locale et 18:00 UTC.

2 Le vent souffle depuis la direction indiquée vers la direction oposée.

3 Les rafales max. sont disponible 40 min après l'heure du relevé.

4 Pour les stations d'altitude (plus de 600m) le géopotentiel du niveau le plus proche de la pression obligatoire est indiqué.

5 Les stations disposant d'un diffuseur peuvent indiquer "trace". Cela signifie que des précipitations ont touchés le sol mais que la quantité est inférieure à 0.1 mm.

Récapitulatif de la journée
Température [°C] Vent [km/h] Ensoleillement4 [h] Precipitations totale5 [mm] Pression [Hpa]
Min1 Max.2 Moy.3 Max. Min Max.
14.5 28.4 0 37.0 8 h 6 min 0 1018.0 1026.1

1 Température minimale relevée entre 18:00 UTC la veille et 18:00 UTC le jour donné.

2 Température maximale relevée entre 06:00 UTC le jour donné et 06:00 UTC le lendemain.

3 Vent moyen de la journée basé sur les relevés horaires.

4 Ensoleillement en heures relevé entre 06:00 UTC la veille et 06:00 UTC le jour donné.

5 Précipitations totales tombées entre 06:00 UTC la jour donné et 06:00 UTC le lendemain.

Graphiques horaires